Time;durP1;ratioP1;P1;durP2;ratioP2;P2;SDS_P1;SDS_P2;PMS_P1;PMS_P2;Temp;Humidity;BMP_temperature;BMP_pressure;BME280_temperature;BME280_humidity;BME280_pressure;Samples;Min_cycle;Max_cycle;Signal;HPM_P1;HPM_P2
2022/08/28 00:03:18;;;;;;;;;;;;;;;22.40;72.45;100172.88;12859427;23;20350;-72
2022/08/28 00:08:22;;;;;;;;;;;;;;;22.31;72.48;100162.88;12858782;23;19934;-70
2022/08/28 00:13:26;;;;;;;;;;;;;;;22.32;72.01;100171.66;12858445;23;20015;-73
2022/08/28 00:18:31;;;;;;;;;;;;;;;22.30;72.81;100170.88;12858535;23;20227;-69
2022/08/28 00:23:36;;;;;;;;;;;;;;;22.24;72.92;100168.63;12858092;23;19931;-73
2022/08/28 00:28:45;;;;;;;;;;;;;;;22.19;73.16;100161.00;12876076;23;20316;-70
2022/08/28 00:33:48;;;;;;;;;;;;;;;22.16;72.97;100155.88;12876938;23;19951;-72
2022/08/28 00:38:52;;;;;;;;;;;;;;;22.13;73.06;100165.78;12879025;23;20242;-73
2022/08/28 00:44:05;;;;;;;;;;;;;;;22.10;72.55;100163.31;12882869;23;19947;-74
2022/08/28 00:49:09;;;;;;;;;;;;;;;22.06;72.16;100170.59;12881195;23;19999;-71
2022/08/28 00:54:13;;;;;;;;;;;;;;;22.05;71.95;100166.25;12879753;23;19924;-69
2022/08/28 00:59:18;;;;;;;;;;;;;;;21.98;71.09;100162.28;12861449;23;19947;-68
2022/08/28 01:04:22;;;;;;;;;;;;;;;21.93;70.77;100153.78;12862008;23;20003;-72
2022/08/28 01:09:29;;;;;;;;;;;;;;;21.92;70.69;100154.69;12861177;23;19920;-70
2022/08/28 01:14:33;;;;;;;;;;;;;;;21.84;70.50;100153.47;12879927;23;20332;-69
2022/08/28 01:19:38;;;;;;;;;;;;;;;21.83;70.32;100147.31;12861455;23;20298;-71
2022/08/28 01:24:44;;;;;;;;;;;;;;;21.75;70.10;100147.75;12861443;23;19920;-71
2022/08/28 01:29:47;;;;;;;;;;;;;;;21.73;70.22;100154.06;12880089;23;19919;-70
2022/08/28 01:34:50;;;;;;;;;;;;;;;21.67;70.99;100157.06;12861198;23;20286;-71
2022/08/28 01:39:55;;;;;;;;;;;;;;;21.73;70.94;100156.69;12879633;23;20294;-71
2022/08/28 01:44:58;;;;;;;;;;;;;;;21.65;71.22;100153.66;12880125;23;20382;-70
2022/08/28 01:50:01;;;;;;;;;;;;;;;21.63;70.45;100145.84;12860950;23;19991;-70
2022/08/28 01:55:06;;;;;;;;;;;;;;;21.60;70.63;100146.03;12859956;23;19967;-70
2022/08/28 02:00:10;;;;;;;;;;;;;;;21.50;71.28;100146.66;12863293;23;19954;-69
2022/08/28 02:05:13;;;;;;;;;;;;;;;21.52;70.90;100155.31;12887166;23;19950;-69
2022/08/28 02:10:17;;;;;;;;;;;;;;;21.48;71.05;100151.16;12867904;23;19986;-72
2022/08/28 02:15:20;;;;;;;;;;;;;;;21.42;71.51;100140.94;12887765;23;19944;-69
2022/08/28 02:20:25;;;;;;;;;;;;;;;21.28;72.30;100139.09;12887119;23;20248;-72
2022/08/28 02:25:30;;;;;;;;;;;;;;;21.31;73.01;100144.19;12879588;23;19954;-70
2022/08/28 02:30:33;;;;;;;;;;;;;;;21.33;73.02;100152.88;12887033;23;19998;-72
2022/08/28 02:35:36;;;;;;;;;;;;;;;21.26;74.03;100145.41;12887066;23;20002;-70
2022/08/28 02:40:41;;;;;;;;;;;;;;;21.20;75.70;100146.59;12887663;23;19950;-70
2022/08/28 02:45:44;;;;;;;;;;;;;;;21.17;76.82;100141.50;12886825;23;19944;-71
2022/08/28 02:50:47;;;;;;;;;;;;;;;21.15;77.31;100142.53;12886976;23;20260;-71
2022/08/28 02:55:51;;;;;;;;;;;;;;;21.06;78.27;100143.03;12886993;23;19970;-68
2022/08/28 03:00:55;;;;;;;;;;;;;;;21.02;78.30;100144.16;12887007;23;19951;-70
2022/08/28 03:06:01;;;;;;;;;;;;;;;21.04;78.05;100144.91;12866765;23;19920;-71
2022/08/28 03:11:05;;;;;;;;;;;;;;;20.96;77.55;100141.81;12866138;23;19944;-70
2022/08/28 03:16:08;;;;;;;;;;;;;;;20.94;77.97;100148.97;12866017;23;19991;-71
2022/08/28 03:21:11;;;;;;;;;;;;;;;20.95;77.58;100145.41;12866687;23;20305;-71
2022/08/28 03:26:17;;;;;;;;;;;;;;;20.92;77.37;100140.28;12865739;23;20263;-70
2022/08/28 03:31:22;;;;;;;;;;;;;;;20.77;77.45;100142.00;12887439;23;19978;-65
2022/08/28 03:36:26;;;;;;;;;;;;;;;20.80;77.12;100136.53;12865715;23;20007;-65
2022/08/28 03:41:31;;;;;;;;;;;;;;;20.73;78.04;100140.44;12865800;23;20304;-66
2022/08/28 03:46:35;;;;;;;;;;;;;;;20.64;78.24;100152.34;12865911;23;19955;-70
2022/08/28 03:51:38;;;;;;;;;;;;;;;20.61;79.36;100157.81;12866058;23;20000;-64
2022/08/28 03:56:42;;;;;;;;;;;;;;;20.57;79.77;100158.91;12865647;23;20315;-68
2022/08/28 04:01:45;;;;;;;;;;;;;;;20.54;80.14;100163.50;12865536;23;19943;-67
2022/08/28 04:06:48;;;;;;;;;;;;;;;20.55;80.31;100168.69;12865768;23;20009;-67
2022/08/28 04:11:53;;;;;;;;;;;;;;;20.50;80.84;100173.34;12866224;23;19931;-64
2022/08/28 04:16:56;;;;;;;;;;;;;;;20.48;81.54;100172.56;12868144;23;20291;-65
2022/08/28 04:22:03;;;;;;;;;;;;;;;20.52;81.19;100162.72;12891142;23;19931;-66
2022/08/28 04:27:07;;;;;;;;;;;;;;;20.47;81.17;100168.25;12869604;23;19962;-67
2022/08/28 04:32:10;;;;;;;;;;;;;;;20.50;81.71;100175.16;12869400;23;19920;-66
2022/08/28 04:37:15;;;;;;;;;;;;;;;20.49;81.63;100165.53;12869316;23;20205;-64
2022/08/28 04:42:19;;;;;;;;;;;;;;;20.53;81.56;100164.44;12863294;23;20010;-66
2022/08/28 04:47:22;;;;;;;;;;;;;;;20.47;82.54;100170.03;12864460;23;19940;-67
2022/08/28 04:52:25;;;;;;;;;;;;;;;20.56;81.44;100169.53;12863377;23;19924;-69
2022/08/28 04:57:29;;;;;;;;;;;;;;;20.52;81.54;100165.34;12862495;23;19924;-64
2022/08/28 05:02:38;;;;;;;;;;;;;;;20.61;80.89;100167.50;12882398;23;19998;-66
2022/08/28 05:07:41;;;;;;;;;;;;;;;20.65;81.14;100164.63;12861695;23;20003;-65
2022/08/28 05:12:48;;;;;;;;;;;;;;;20.64;81.32;100168.19;12882544;23;19963;-68
2022/08/28 05:17:51;;;;;;;;;;;;;;;20.68;81.38;100168.88;12861886;23;20007;-67
2022/08/28 05:22:54;;;;;;;;;;;;;;;20.64;81.86;100170.81;12862542;23;19978;-68
2022/08/28 05:27:59;;;;;;;;;;;;;;;20.66;82.02;100176.88;12860418;23;19995;-66
2022/08/28 05:33:02;;;;;;;;;;;;;;;20.64;81.46;100178.72;12861575;23;19923;-65
2022/08/28 05:38:05;;;;;;;;;;;;;;;20.70;82.01;100174.91;12861133;23;19970;-68
2022/08/28 05:43:09;;;;;;;;;;;;;;;20.87;83.13;100181.91;12861094;23;20235;-65
2022/08/28 05:48:15;;;;;;;;;;;;;;;20.95;83.55;100185.81;12860529;23;20552;-66
2022/08/28 05:53:18;;;;;;;;;;;;;;;20.96;82.80;100187.53;12860486;23;19995;-65
2022/08/28 05:58:31;;;;;;;;;;;;;;;21.04;83.59;100181.84;12860946;23;19924;-66
2022/08/28 06:03:34;;;;;;;;;;;;;;;21.08;83.27;100186.91;12861963;23;19991;-67
2022/08/28 06:08:38;;;;;;;;;;;;;;;21.16;82.71;100191.72;12861429;23;19954;-64
2022/08/28 06:14:04;;;;;;;;;;;;;;;21.13;82.19;100190.13;12882970;23;19924;-67
2022/08/28 06:19:08;;;;;;;;;;;;;;;21.13;82.18;100181.34;12883173;23;20003;-65
2022/08/28 06:24:12;;;;;;;;;;;;;;;21.23;82.04;100182.53;12860529;23;19990;-64
2022/08/28 06:29:17;;;;;;;;;;;;;;;21.27;82.43;100178.78;12860044;23;19998;-65
2022/08/28 06:34:23;;;;;;;;;;;;;;;21.35;82.45;100179.19;12859537;23;20315;-66
2022/08/28 06:39:26;;;;;;;;;;;;;;;21.52;82.68;100179.94;12859934;23;20003;-64
2022/08/28 06:44:31;;;;;;;;;;;;;;;21.58;80.86;100173.44;12860346;23;19955;-67
2022/08/28 06:49:34;;;;;;;;;;;;;;;21.65;80.34;100172.16;12859915;23;19994;-66
2022/08/28 06:54:37;;;;;;;;;;;;;;;21.78;80.19;100159.94;12859862;23;19999;-65
2022/08/28 06:59:43;;;;;;;;;;;;;;;21.93;80.31;100168.78;12859138;23;19977;-69
2022/08/28 07:04:50;;;;;;;;;;;;;;;22.05;80.70;100176.84;12859167;23;20231;-63
2022/08/28 07:09:53;;;;;;;;;;;;;;;22.18;80.78;100176.91;12880403;23;19924;-63
2022/08/28 07:14:57;;;;;;;;;;;;;;;22.23;80.73;100162.47;12859658;23;20014;-67
2022/08/28 07:20:00;;;;;;;;;;;;;;;22.34;79.92;100165.34;12863058;23;19983;-75
2022/08/28 07:25:04;;;;;;;;;;;;;;;22.50;79.57;100171.34;12839670;23;20197;-74
2022/08/28 07:30:11;;;;;;;;;;;;;;;22.60;79.28;100172.56;12839791;23;20073;-78
2022/08/28 07:35:15;;;;;;;;;;;;;;;22.68;78.90;100164.97;12865963;23;19924;-77
2022/08/28 07:40:20;;;;;;;;;;;;;;;22.78;78.42;100167.88;12864599;23;19924;-75
2022/08/28 07:45:25;;;;;;;;;;;;;;;22.92;78.32;100160.78;12833548;23;19920;-78
2022/08/28 07:50:28;;;;;;;;;;;;;;;23.03;78.34;100156.59;12860436;23;19943;-76
2022/08/28 07:55:31;;;;;;;;;;;;;;;23.14;77.59;100160.25;12865215;23;20316;-72
2022/08/28 08:00:36;;;;;;;;;;;;;;;23.25;77.44;100164.84;12864623;23;19931;-73
2022/08/28 08:05:40;;;;;;;;;;;;;;;23.36;77.21;100170.31;12862785;23;19920;-76
2022/08/28 08:10:43;;;;;;;;;;;;;;;23.47;76.77;100168.66;12862494;23;19923;-72
2022/08/28 08:15:49;;;;;;;;;;;;;;;23.59;76.57;100167.84;12862946;23;19924;-75
2022/08/28 08:20:52;;;;;;;;;;;;;;;23.70;76.50;100154.75;12862310;23;19951;-70
2022/08/28 08:25:56;;;;;;;;;;;;;;;23.81;76.23;100156.66;12863165;23;20006;-72
2022/08/28 08:31:04;;;;;;;;;;;;;;;23.91;76.39;100163.03;12862291;23;19998;-74
2022/08/28 08:36:08;;;;;;;;;;;;;;;24.08;75.58;100167.22;12882883;23;19955;-72
2022/08/28 08:41:14;;;;;;;;;;;;;;;24.23;74.19;100166.19;12862371;23;20289;-73
2022/08/28 08:46:21;;;;;;;;;;;;;;;24.37;72.68;100158.94;12883088;23;20282;-74
2022/08/28 08:51:29;;;;;;;;;;;;;;;24.62;71.47;100155.44;12882755;23;19935;-72
2022/08/28 08:56:33;;;;;;;;;;;;;;;24.87;69.32;100158.91;12884161;23;19924;-72
2022/08/28 09:01:41;;;;;;;;;;;;;;;24.94;68.54;100159.31;12864810;23;20002;-71
2022/08/28 09:06:48;;;;;;;;;;;;;;;25.08;68.72;100156.50;12883101;23;19995;-75
2022/08/28 09:11:54;;;;;;;;;;;;;;;25.31;68.94;100160.13;12882764;23;20527;-75
2022/08/28 09:17:00;;;;;;;;;;;;;;;25.61;67.77;100160.56;12836071;23;19928;-71
2022/08/28 09:22:04;;;;;;;;;;;;;;;25.86;67.41;100158.59;12862437;23;19955;-74
2022/08/28 09:27:08;;;;;;;;;;;;;;;26.11;67.07;100153.09;12863086;23;19978;-71
2022/08/28 09:32:22;;;;;;;;;;;;;;;26.26;67.06;100156.41;12882745;23;20013;-73
2022/08/28 09:37:26;;;;;;;;;;;;;;;26.59;65.61;100148.44;12881400;23;19955;-73
2022/08/28 09:47:56;;;;;;;;;;;;;;;27.15;64.32;100144.72;12811883;23;19939;-76
2022/08/28 09:53:13;;;;;;;;;;;;;;;30.93;52.21;100138.94;12880319;23;20001;-71
2022/08/28 09:58:16;;;;;;;;;;;;;;;32.22;46.72;100129.44;12860732;23;20262;-71
2022/08/28 10:03:23;;;;;;;;;;;;;;;30.30;52.44;100137.97;12860056;23;19981;-75
2022/08/28 10:08:31;;;;;;;;;;;;;;;29.96;53.20;100133.22;12860149;23;20051;-76
2022/08/28 10:13:36;;;;;;;;;;;;;;;29.96;53.47;100125.19;12878687;23;20280;-73
2022/08/28 10:18:45;;;;;;;;;;;;;;;30.00;53.58;100132.78;12859899;23;20255;-74
2022/08/28 10:23:57;;;;;;;;;;;;;;;30.17;52.85;100134.72;12877539;23;20378;-73
2022/08/28 10:29:06;;;;;;;;;;;;;;;30.18;52.75;100122.16;12876963;23;20339;-71
2022/08/28 10:34:21;;;;;;;;;;;;;;;30.09;49.63;100117.69;12876522;23;20281;-75
2022/08/28 10:39:29;;;;;;;;;;;;;;;30.33;51.62;100118.91;12877020;23;19947;-75
2022/08/28 10:44:38;;;;;;;;;;;;;;;30.55;50.83;100118.53;12877092;23;20648;-71
2022/08/28 10:49:45;;;;;;;;;;;;;;;30.90;50.31;100117.81;12878071;23;19928;-71
2022/08/28 10:54:50;;;;;;;;;;;;;;;31.09;48.42;100122.19;12877200;23;19971;-71
2022/08/28 10:59:53;;;;;;;;;;;;;;;31.13;48.64;100120.91;12859774;23;20003;-73
2022/08/28 11:04:58;;;;;;;;;;;;;;;31.26;48.39;100116.84;12859344;23;19923;-71
2022/08/28 11:10:15;;;;;;;;;;;;;;;31.52;47.85;100100.84;12859647;23;20000;-74
2022/08/28 11:15:37;;;;;;;;;;;;;;;32.05;45.27;100098.91;12875367;23;19944;-72
2022/08/28 11:20:43;;;;;;;;;;;;;;;32.37;44.51;100103.66;12876720;23;20051;-75
2022/08/28 11:25:49;;;;;;;;;;;;;;;32.37;44.39;100100.97;12874257;23;19967;-72
2022/08/28 11:31:08;;;;;;;;;;;;;;;32.67;43.51;100090.53;12859694;23;19982;-76
2022/08/28 11:36:32;;;;;;;;;;;;;;;32.86;43.12;100097.47;12858976;23;20003;-75
2022/08/28 11:41:38;;;;;;;;;;;;;;;32.86;43.47;100100.16;12858108;23;19947;-75
2022/08/28 11:46:42;;;;;;;;;;;;;;;32.53;43.98;100095.69;12871603;23;19966;-73
2022/08/28 11:51:53;;;;;;;;;;;;;;;32.02;45.86;100095.72;12859943;23;19924;-71
2022/08/28 11:57:04;;;;;;;;;;;;;;;31.60;46.76;100099.06;12833383;23;20026;-73
2022/08/28 12:02:26;;;;;;;;;;;;;;;31.45;47.55;100100.63;12870618;23;20356;-74
2022/08/28 12:07:34;;;;;;;;;;;;;;;31.40;45.34;100102.94;12860093;23;20219;-76
2022/08/28 12:12:52;;;;;;;;;;;;;;;31.73;43.33;100097.81;12833885;23;19924;-72
2022/08/28 12:17:56;;;;;;;;;;;;;;;32.45;43.55;100084.88;12834865;23;20292;-74
2022/08/28 12:23:00;;;;;;;;;;;;;;;32.70;43.80;100086.69;12859990;23;19931;-73
2022/08/28 12:28:14;;;;;;;;;;;;;;;32.72;44.49;100082.81;12858934;23;19987;-73
2022/08/28 12:33:22;;;;;;;;;;;;;;;33.23;43.97;100084.47;12858511;23;20271;-78
2022/08/28 12:38:27;;;;;;;;;;;;;;;33.63;40.48;100070.22;12871272;23;19982;-71
2022/08/28 12:43:35;;;;;;;;;;;;;;;34.04;36.27;100079.09;12862632;23;19990;-78
2022/08/28 12:48:49;;;;;;;;;;;;;;;35.64;34.24;100035.06;12871687;23;19927;-74
2022/08/28 12:53:53;;;;;;;;;;;;;;;36.99;32.69;100027.34;12862661;23;19920;-74
2022/08/28 12:59:18;;;;;;;;;;;;;;;37.43;32.18;100029.88;12861951;23;20003;-73
2022/08/28 13:04:32;;;;;;;;;;;;;;;38.02;32.16;100026.56;12862059;23;20038;-74
2022/08/28 13:09:36;;;;;;;;;;;;;;;38.03;32.32;100027.44;12869869;23;19994;-75
2022/08/28 13:14:42;;;;;;;;;;;;;;;37.37;33.28;100022.53;12861785;23;19943;-73
2022/08/28 13:19:45;;;;;;;;;;;;;;;36.55;35.73;100034.75;12869093;23;20220;-75
2022/08/28 13:24:48;;;;;;;;;;;;;;;36.07;35.25;100025.31;12861310;23;19926;-75
2022/08/28 13:30:02;;;;;;;;;;;;;;;35.63;36.11;100022.59;12861327;23;20007;-74
2022/08/28 13:35:12;;;;;;;;;;;;;;;35.02;34.85;100022.72;12861734;23;19920;-73
2022/08/28 13:40:17;;;;;;;;;;;;;;;33.39;36.59;100032.50;12870663;23;19920;-76
2022/08/28 13:45:43;;;;;;;;;;;;;;;33.30;36.82;100018.22;12863827;23;20220;-72
2022/08/28 13:50:48;;;;;;;;;;;;;;;33.32;37.25;100020.72;12868032;23;19920;-75
2022/08/28 13:55:53;;;;;;;;;;;;;;;33.19;37.64;100026.59;12836569;23;20007;-74
2022/08/28 14:00:57;;;;;;;;;;;;;;;33.15;38.41;100019.91;12860660;23;19955;-73
2022/08/28 14:06:01;;;;;;;;;;;;;;;33.11;38.51;100015.84;12860494;23;20276;-74
2022/08/28 14:11:06;;;;;;;;;;;;;;;33.05;39.48;100021.88;12861338;23;19935;-72
2022/08/28 14:16:12;;;;;;;;;;;;;;;32.93;37.90;100017.84;12860677;23;19954;-74
2022/08/28 14:21:18;;;;;;;;;;;;;;;32.84;38.24;100016.13;12860642;23;20312;-73
2022/08/28 14:26:21;;;;;;;;;;;;;;;32.46;38.82;100011.34;12859806;23;20369;-76
2022/08/28 14:31:26;;;;;;;;;;;;;;;31.93;38.80;100014.25;12833538;23;19924;-75
2022/08/28 14:36:29;;;;;;;;;;;;;;;31.78;39.23;100023.88;12860255;23;19920;-75
2022/08/28 14:41:33;;;;;;;;;;;;;;;31.48;41.03;100024.31;12861095;23;20304;-70
2022/08/28 14:46:42;;;;;;;;;;;;;;;31.26;41.61;100036.38;12858281;23;21284;-73
2022/08/28 14:51:46;;;;;;;;;;;;;;;31.36;42.60;100034.47;12866896;23;20068;-72
2022/08/28 14:56:49;;;;;;;;;;;;;;;31.42;42.20;100027.63;12860523;23;19990;-72
2022/08/28 15:01:54;;;;;;;;;;;;;;;31.30;42.32;100044.94;12865920;23;19979;-73
2022/08/28 15:06:58;;;;;;;;;;;;;;;30.98;45.27;100052.72;12866374;23;19978;-74
2022/08/28 15:12:01;;;;;;;;;;;;;;;30.52;49.07;100059.88;12866171;23;19950;-71
2022/08/28 15:17:06;;;;;;;;;;;;;;;30.15;50.81;100063.56;12866343;23;19998;-73
2022/08/28 15:22:09;;;;;;;;;;;;;;;29.88;51.11;100068.84;12866172;23;19939;-75
2022/08/28 15:27:13;;;;;;;;;;;;;;;29.63;51.87;100081.00;12866053;23;19924;-70
2022/08/28 15:32:17;;;;;;;;;;;;;;;29.44;54.10;100081.00;12865939;23;19924;-71
2022/08/28 15:37:20;;;;;;;;;;;;;;;29.29;52.03;100077.03;12866182;23;19978;-73
2022/08/28 15:42:23;;;;;;;;;;;;;;;29.20;51.47;100067.22;12865987;23;19927;-73
2022/08/28 15:47:28;;;;;;;;;;;;;;;29.11;52.12;100057.34;12865855;23;19919;-75
2022/08/28 15:52:31;;;;;;;;;;;;;;;29.10;52.50;100058.31;12865794;23;19920;-74
2022/08/28 15:57:34;;;;;;;;;;;;;;;29.06;53.38;100052.38;12867318;23;19943;-75
2022/08/28 16:02:38;;;;;;;;;;;;;;;29.01;54.96;100054.63;12866479;23;19931;-71
2022/08/28 16:07:42;;;;;;;;;;;;;;;28.93;56.77;100065.19;12839442;23;19931;-71
2022/08/28 16:12:45;;;;;;;;;;;;;;;28.81;60.55;100076.97;12869300;23;19924;-71
2022/08/28 16:17:58;;;;;;;;;;;;;;;28.72;60.29;100066.25;12869469;23;19959;-72
2022/08/28 16:23:02;;;;;;;;;;;;;;;28.61;60.78;100072.59;12868454;23;19931;-74
2022/08/28 16:28:05;;;;;;;;;;;;;;;28.49;61.64;100088.81;12869719;23;20296;-74
2022/08/28 16:33:10;;;;;;;;;;;;;;;28.36;62.40;100081.03;12869781;23;20296;-72
2022/08/28 16:38:13;;;;;;;;;;;;;;;28.23;62.73;100083.91;12869451;23;19924;-72
2022/08/28 16:43:16;;;;;;;;;;;;;;;28.11;64.73;100089.50;12869068;23;19947;-74
2022/08/28 16:48:21;;;;;;;;;;;;;;;27.99;65.68;100082.56;12869628;23;19974;-74
2022/08/28 16:53:24;;;;;;;;;;;;;;;27.95;65.77;100089.13;12869001;23;19978;-72
2022/08/28 16:58:30;;;;;;;;;;;;;;;27.84;66.93;100089.16;12877576;23;19920;-73
2022/08/28 17:03:35;;;;;;;;;;;;;;;27.75;67.27;100097.97;12868799;23;19924;-74
2022/08/28 17:08:38;;;;;;;;;;;;;;;27.72;67.30;100096.38;12868590;23;19954;-76
2022/08/28 17:13:41;;;;;;;;;;;;;;;27.71;67.45;100099.19;12868509;23;20268;-74
2022/08/28 17:18:46;;;;;;;;;;;;;;;27.65;68.50;100107.69;12868689;23;19951;-75
2022/08/28 17:23:54;;;;;;;;;;;;;;;27.59;69.73;100117.09;12876361;23;19924;-72
2022/08/28 17:28:57;;;;;;;;;;;;;;;27.53;70.05;100130.06;12876604;23;19920;-74
2022/08/28 17:34:01;;;;;;;;;;;;;;;27.51;69.63;100130.19;12869501;23;19931;-74
2022/08/28 17:39:06;;;;;;;;;;;;;;;27.51;69.26;100142.72;12867898;23;19951;-72
2022/08/28 17:44:10;;;;;;;;;;;;;;;27.35;69.63;100167.13;12867942;23;19991;-73
2022/08/28 17:49:14;;;;;;;;;;;;;;;26.98;68.65;100182.56;12867832;23;19920;-75
2022/08/28 17:54:20;;;;;;;;;;;;;;;26.74;67.36;100196.97;12867528;23;19983;-74
2022/08/28 17:59:24;;;;;;;;;;;;;;;26.45;66.77;100198.41;12875571;23;19931;-73
2022/08/28 18:04:28;;;;;;;;;;;;;;;25.97;68.62;100209.13;12867946;23;19955;-73
2022/08/28 18:09:31;;;;;;;;;;;;;;;25.77;69.53;100209.81;12867870;23;19984;-75
2022/08/28 18:14:34;;;;;;;;;;;;;;;25.75;70.07;100213.53;12867501;23;19982;-70
2022/08/28 18:19:39;;;;;;;;;;;;;;;25.51;71.87;100213.53;12866098;23;20219;-68
2022/08/28 18:24:43;;;;;;;;;;;;;;;25.55;72.60;100209.72;12870478;23;20358;-72
2022/08/28 18:29:46;;;;;;;;;;;;;;;25.53;72.75;100202.78;12866634;23;19944;-70
2022/08/28 18:34:50;;;;;;;;;;;;;;;25.46;72.92;100196.22;12866769;23;20303;-69
2022/08/28 18:39:53;;;;;;;;;;;;;;;25.36;73.21;100208.47;12866661;23;19920;-73
2022/08/28 18:44:58;;;;;;;;;;;;;;;25.26;73.29;100204.78;12866577;23;19951;-71
2022/08/28 18:50:02;;;;;;;;;;;;;;;25.13;73.80;100203.03;12866591;23;19955;-70
2022/08/28 18:55:08;;;;;;;;;;;;;;;24.92;75.58;100201.91;12874811;23;19986;-71
2022/08/28 19:00:12;;;;;;;;;;;;;;;24.64;76.76;100211.91;12866481;23;19942;-70
2022/08/28 19:05:16;;;;;;;;;;;;;;;24.60;76.84;100213.09;12866298;23;19935;-71
2022/08/28 19:10:20;;;;;;;;;;;;;;;24.57;76.37;100210.66;12866939;23;19920;-70
2022/08/28 19:15:35;;;;;;;;;;;;;;;24.47;76.25;100213.06;12873808;23;19928;-72
2022/08/28 19:20:40;;;;;;;;;;;;;;;24.62;75.25;100220.00;12866312;23;19978;-73
2022/08/28 19:25:43;;;;;;;;;;;;;;;24.56;74.02;100215.09;12866497;23;19948;-69
2022/08/28 19:30:47;;;;;;;;;;;;;;;24.56;73.54;100214.25;12866690;23;19920;-73
2022/08/28 19:35:52;;;;;;;;;;;;;;;24.51;73.27;100211.91;12865947;23;20224;-75
2022/08/28 19:40:55;;;;;;;;;;;;;;;24.56;72.56;100203.63;12865901;23;19998;-75
2022/08/28 19:45:59;;;;;;;;;;;;;;;24.56;72.33;100207.13;12859916;23;19987;-68
2022/08/28 19:51:04;;;;;;;;;;;;;;;24.60;72.16;100207.78;12858378;23;20467;-65
2022/08/28 19:56:17;;;;;;;;;;;;;;;24.54;72.23;100209.03;12859102;23;19976;-69
2022/08/28 20:01:20;;;;;;;;;;;;;;;24.50;72.51;100212.88;12858880;23;19931;-65
2022/08/28 20:06:25;;;;;;;;;;;;;;;24.37;73.29;100209.38;12858561;23;19940;-67
2022/08/28 20:11:28;;;;;;;;;;;;;;;24.30;74.47;100200.13;12858432;23;19991;-64
2022/08/28 20:16:33;;;;;;;;;;;;;;;24.32;74.29;100197.38;12858878;23;19920;-67
2022/08/28 20:21:39;;;;;;;;;;;;;;;24.32;75.03;100200.03;12858674;23;19947;-68
2022/08/28 20:26:42;;;;;;;;;;;;;;;24.23;75.51;100196.19;12867111;23;20003;-66
2022/08/28 20:31:46;;;;;;;;;;;;;;;24.24;75.39;100189.97;12858923;23;19939;-66
2022/08/28 20:36:51;;;;;;;;;;;;;;;24.14;76.82;100194.19;12858089;23;19987;-71
2022/08/28 20:41:54;;;;;;;;;;;;;;;24.10;78.19;100198.00;12857997;23;20485;-68
2022/08/28 20:46:57;;;;;;;;;;;;;;;24.09;77.42;100196.28;12858650;23;19951;-68
2022/08/28 20:52:03;;;;;;;;;;;;;;;24.02;78.27;100190.56;12860008;23;20009;-67
2022/08/28 20:57:07;;;;;;;;;;;;;;;24.02;77.72;100189.72;12862573;23;19943;-65
2022/08/28 21:02:12;;;;;;;;;;;;;;;23.99;77.63;100195.22;12838073;23;19924;-68
2022/08/28 21:07:17;;;;;;;;;;;;;;;23.95;78.80;100191.91;12862767;23;19928;-68
2022/08/28 21:12:21;;;;;;;;;;;;;;;24.10;78.04;100186.53;12871706;23;19959;-66
2022/08/28 21:17:26;;;;;;;;;;;;;;;24.12;78.58;100185.50;12871701;23;20230;-66
2022/08/28 21:22:33;;;;;;;;;;;;;;;24.06;80.30;100188.53;12871702;23;20220;-65
2022/08/28 21:27:38;;;;;;;;;;;;;;;23.98;80.94;100197.00;12861222;23;19923;-68
2022/08/28 21:32:41;;;;;;;;;;;;;;;23.91;81.82;100214.28;12835757;23;19970;-65
2022/08/28 21:37:46;;;;;;;;;;;;;;;23.80;82.26;100216.78;12834831;23;20042;-65
2022/08/28 21:42:49;;;;;;;;;;;;;;;23.79;82.46;100225.72;12860843;23;20531;-67
2022/08/28 21:47:52;;;;;;;;;;;;;;;23.79;82.14;100232.81;12861642;23;19955;-68
2022/08/28 21:52:56;;;;;;;;;;;;;;;23.89;81.73;100244.50;12860936;23;19998;-65
2022/08/28 21:58:00;;;;;;;;;;;;;;;23.90;82.00;100251.50;12861053;23;19963;-68
2022/08/28 22:03:03;;;;;;;;;;;;;;;23.85;82.70;100258.91;12861455;23;20028;-66
2022/08/28 22:08:07;;;;;;;;;;;;;;;23.91;82.16;100255.84;12859893;23;19924;-66
2022/08/28 22:13:11;;;;;;;;;;;;;;;23.96;80.92;100257.25;12860294;23;19924;-65
2022/08/28 22:18:15;;;;;;;;;;;;;;;23.91;80.42;100259.38;12860580;23;20366;-68
2022/08/28 22:23:20;;;;;;;;;;;;;;;23.82;81.35;100264.41;12861727;23;19995;-66
2022/08/28 22:28:23;;;;;;;;;;;;;;;23.71;83.31;100256.31;12862279;23;19987;-66
2022/08/28 22:33:26;;;;;;;;;;;;;;;23.55;84.26;100266.22;12861155;23;20003;-68
2022/08/28 22:38:30;;;;;;;;;;;;;;;23.56;85.64;100265.25;12859925;23;19943;-66
2022/08/28 22:43:33;;;;;;;;;;;;;;;23.38;85.93;100272.63;12859570;23;19998;-66
2022/08/28 22:48:36;;;;;;;;;;;;;;;23.33;91.03;100264.09;12860553;23;19958;-66
2022/08/28 22:53:42;;;;;;;;;;;;;;;23.46;89.70;100256.19;12859565;23;19998;-66
2022/08/28 22:58:45;;;;;;;;;;;;;;;23.36;91.27;100263.91;12860620;23;19923;-65
2022/08/28 23:03:48;;;;;;;;;;;;;;;23.34;92.86;100275.53;12859379;23;20081;-66
2022/08/28 23:08:52;;;;;;;;;;;;;;;23.35;94.47;100296.63;12859312;23;19955;-67
2022/08/28 23:13:55;;;;;;;;;;;;;;;;;;12859697;23;19923;-68
2022/08/28 23:18:58;;;;;;;;;;;;;;;23.24;97.84;100316.78;12859642;23;19952;-67
2022/08/28 23:24:13;;;;;;;;;;;;;;;22.89;100.00;100317.16;12873112;23;20204;-66
2022/08/28 23:29:15;;;;;;;;;;;;;;;22.72;100.00;100309.41;12873591;23;19930;-65
2022/08/28 23:34:19;;;;;;;;;;;;;;;22.76;100.00;100295.00;12858932;23;19924;-65
2022/08/28 23:39:23;;;;;;;;;;;;;;;22.59;100.00;100276.66;12858744;23;19924;-67
2022/08/28 23:44:29;;;;;;;;;;;;;;;22.65;100.00;100260.44;12858750;23;19999;-68
2022/08/28 23:49:32;;;;;;;;;;;;;;;22.84;100.00;100261.00;12859710;23;19924;-74
2022/08/28 23:54:46;;;;;;;;;;;;;;;22.80;100.00;100251.53;12878046;23;20005;-71
2022/08/28 23:59:49;;;;;;;;;;;;;;;22.78;100.00;100250.78;12864708;23;19920;-70
